createdAt,value
2016-12-27T00:00:01.984Z,22.77
2016-12-27T00:01:11.961Z,22.86
2016-12-27T00:02:21.919Z,22.67
2016-12-27T00:03:31.564Z,22.67
2016-12-27T00:04:41.562Z,22.67
2016-12-27T00:05:51.512Z,22.77
2016-12-27T00:07:01.480Z,22.67
2016-12-27T00:08:11.739Z,22.67
2016-12-27T00:09:21.995Z,22.77
2016-12-27T00:10:31.944Z,22.77
2016-12-27T00:11:41.578Z,22.66
2016-12-27T00:12:51.839Z,22.67
2016-12-27T00:14:01.817Z,22.67
2016-12-27T00:15:11.768Z,22.77
2016-12-27T00:16:21.718Z,22.77
2016-12-27T00:17:31.676Z,22.48
2016-12-27T00:18:41.941Z,22.58
2016-12-27T00:19:51.576Z,22.77
2016-12-27T00:21:01.851Z,22.58
2016-12-27T00:22:11.820Z,22.77
2016-12-27T00:23:22.092Z,22.77
2016-12-27T00:24:32.360Z,22.77
2016-12-27T00:25:42.004Z,22.67
2016-12-27T00:26:51.653Z,22.77
2016-12-27T00:28:01.918Z,22.58
2016-12-27T00:29:11.557Z,22.48
2016-12-27T00:30:21.835Z,22.58
2016-12-27T00:31:32.104Z,22.48
2016-12-27T00:32:41.751Z,22.67
2016-12-27T00:33:52.046Z,22.58
2016-12-27T00:35:01.694Z,22.48
2016-12-27T00:36:11.972Z,22.48
2016-12-27T00:37:21.937Z,22.38
2016-12-27T00:38:32.214Z,22.58
2016-12-27T00:39:41.546Z,22.67
2016-12-27T00:40:51.494Z,22.48
2016-12-27T00:42:01.430Z,22.58
2016-12-27T00:43:11.689Z,22.48
2016-12-27T00:44:21.946Z,22.67
2016-12-27T00:45:32.202Z,22.48
2016-12-27T00:46:42.163Z,22.38
2016-12-27T00:47:52.102Z,22.38
2016-12-27T00:49:02.374Z,22.48
2016-12-27T00:50:12.656Z,22.48
2016-12-27T00:51:22.915Z,22.47
2016-12-27T00:52:33.184Z,22.58
2016-12-27T00:53:43.449Z,22.58
2016-12-27T00:54:53.712Z,22.48
2016-12-27T00:56:03.350Z,22.77
2016-12-27T00:57:13.609Z,22.67
2016-12-27T00:58:23.561Z,22.58
2016-12-27T00:59:33.821Z,22.48
2016-12-27T01:00:44.079Z,22.58
2016-12-27T01:01:54.370Z,22.48
2016-12-27T01:03:04.626Z,22.48
2016-12-27T01:04:14.886Z,22.48
2016-12-27T01:05:25.145Z,22.48
2016-12-27T01:06:35.100Z,22.67
2016-12-27T01:07:45.065Z,22.58
2016-12-27T01:08:55.324Z,22.48
2016-12-27T01:10:05.292Z,22.67
2016-12-27T01:11:15.558Z,22.67
2016-12-27T01:12:25.509Z,22.48
2016-12-27T01:13:35.765Z,22.38
2016-12-27T01:14:45.109Z,22.48
2016-12-27T01:15:55.372Z,22.38
2016-12-27T01:17:05.631Z,22.29
2016-12-27T01:18:14.965Z,22.48
2016-12-27T01:19:25.237Z,22.48
2016-12-27T01:20:35.192Z,22.38
2016-12-27T01:21:45.148Z,22.58
2016-12-27T01:22:55.400Z,22.67
2016-12-27T01:24:05.042Z,22.67
2016-12-27T01:25:15.298Z,22.48
2016-12-27T01:26:25.240Z,22.58
2016-12-27T01:27:34.585Z,22.29
2016-12-27T01:28:44.844Z,22.58
2016-12-27T01:29:55.116Z,22.38
2016-12-27T01:31:05.087Z,22.29
2016-12-27T01:32:14.720Z,22.38
2016-12-27T01:33:24.969Z,22.19
2016-12-27T01:34:35.231Z,22.09
2016-12-27T01:35:45.177Z,22.38
2016-12-27T01:36:55.440Z,22.38
2016-12-27T01:38:05.395Z,22.19
2016-12-27T01:39:15.353Z,22.19
2016-12-27T01:40:25.630Z,22.19
2016-12-27T01:41:35.826Z,22
2016-12-27T01:42:46.082Z,22.09
2016-12-27T01:43:56.038Z,22
2016-12-27T01:45:05.993Z,21.91
2016-12-27T01:46:15.939Z,22.09
2016-12-27T01:47:25.920Z,22.09
2016-12-27T01:48:35.564Z,22
2016-12-27T01:49:45.510Z,22.09
2016-12-27T01:50:55.467Z,22
2016-12-27T01:52:05.720Z,22.19
2016-12-27T01:53:15.052Z,22.67
2016-12-27T01:54:24.991Z,22
2016-12-27T01:55:34.943Z,22.19
2016-12-27T01:56:45.202Z,22
2016-12-27T01:57:55.474Z,22.09
2016-12-27T01:59:05.411Z,22.19
2016-12-27T02:00:15.082Z,22
2016-12-27T02:01:24.952Z,22.09
2016-12-27T02:02:34.906Z,22
2016-12-27T02:03:45.174Z,22.09
2016-12-27T02:04:55.127Z,22
2016-12-27T02:06:05.392Z,22.09
2016-12-27T02:07:15.657Z,22
2016-12-27T02:08:25.625Z,22.09
2016-12-27T02:09:35.577Z,22.19
2016-12-27T02:10:45.523Z,22
2016-12-27T02:11:55.475Z,22.09
2016-12-27T02:13:05.117Z,22.09
2016-12-27T02:14:15.415Z,22.09
2016-12-27T02:15:25.082Z,22.09
2016-12-27T02:16:35.351Z,22.09
2016-12-27T02:17:45.299Z,22.09
2016-12-27T02:18:55.264Z,22.09
2016-12-27T02:20:05.530Z,22.19
2016-12-27T02:21:15.783Z,22.09
2016-12-27T02:22:26.055Z,22.09
2016-12-27T02:23:36.311Z,22.19
2016-12-27T02:24:46.263Z,22.09
2016-12-27T02:25:56.202Z,22.19
2016-12-27T02:27:06.145Z,22.09
2016-12-27T02:28:16.393Z,22
2016-12-27T02:29:26.350Z,21.91
2016-12-27T02:30:36.619Z,22.09
2016-12-27T02:31:46.874Z,22.19
2016-12-27T02:32:57.143Z,22.09
2016-12-27T02:34:07.408Z,22.09
2016-12-27T02:35:17.351Z,22
2016-12-27T02:36:26.679Z,22.09
2016-12-27T02:37:36.631Z,22.38
2016-12-27T02:38:46.897Z,22.19
2016-12-27T02:39:56.548Z,22.19
2016-12-27T02:41:06.814Z,22.19
2016-12-27T02:42:16.756Z,22
2016-12-27T02:43:26.699Z,22.09
2016-12-27T02:44:36.973Z,22
2016-12-27T02:45:46.916Z,22
2016-12-27T02:46:56.865Z,22.19
2016-12-27T02:48:06.813Z,22.19
2016-12-27T02:49:17.090Z,22.09
2016-12-27T02:50:27.347Z,22.09
2016-12-27T02:51:37.306Z,22
2016-12-27T02:52:47.255Z,22.09
2016-12-27T02:53:57.517Z,22.09
2016-12-27T02:55:07.161Z,22.09
2016-12-27T02:56:16.798Z,22.09
2016-12-27T02:57:26.135Z,22
2016-12-27T02:58:35.764Z,22.19
2016-12-27T02:59:46.019Z,22
2016-12-27T03:00:55.353Z,22.09
2016-12-27T03:02:05.623Z,22.09
2016-12-27T03:03:15.578Z,22.09
2016-12-27T03:04:25.951Z,22.19
2016-12-27T03:05:36.226Z,22.09
2016-12-27T03:06:45.856Z,21.91
2016-12-27T03:07:55.501Z,22
2016-12-27T03:09:05.145Z,22
2016-12-27T03:10:15.397Z,22
2016-12-27T03:11:25.356Z,22
2016-12-27T03:12:35.315Z,22
2016-12-27T03:13:45.580Z,22.09
2016-12-27T03:14:55.212Z,22.19
2016-12-27T03:16:05.461Z,22.09
2016-12-27T03:17:15.725Z,22.09
2016-12-27T03:18:25.672Z,22
2016-12-27T03:19:35.311Z,22.09
2016-12-27T03:20:45.604Z,22
2016-12-27T03:21:55.553Z,21.91
2016-12-27T03:23:05.198Z,21.91
2016-12-27T03:24:15.150Z,21.91
2016-12-27T03:25:24.800Z,21.91
2016-12-27T03:26:35.047Z,22.09
2016-12-27T03:27:44.996Z,21.91
2016-12-27T03:28:54.628Z,22
2016-12-27T03:30:04.932Z,21.91
2016-12-27T03:31:14.888Z,21.81
2016-12-27T03:32:24.940Z,21.91
2016-12-27T03:33:34.887Z,21.91
2016-12-27T03:34:45.137Z,21.91
2016-12-27T03:35:55.402Z,21.91
2016-12-27T03:37:05.357Z,22.09
2016-12-27T03:38:15.310Z,21.91
2016-12-27T03:39:25.264Z,22
2016-12-27T03:40:34.906Z,22.09
2016-12-27T03:41:44.563Z,22
2016-12-27T03:42:54.649Z,21.91
2016-12-27T03:44:04.598Z,21.91
2016-12-27T03:45:14.851Z,22
2016-12-27T03:46:24.796Z,22
2016-12-27T03:47:35.043Z,21.81
2016-12-27T03:48:44.997Z,21.81
2016-12-27T03:49:55.255Z,21.91
2016-12-27T03:51:05.202Z,21.81
2016-12-27T03:52:14.840Z,21.91
2016-12-27T03:53:24.789Z,21.91
2016-12-27T03:54:35.045Z,21.91
2016-12-27T03:55:45.000Z,22
2016-12-27T03:56:55.275Z,21.91
2016-12-27T03:58:05.540Z,22.09
2016-12-27T03:59:14.558Z,22
2016-12-27T04:00:24.820Z,21.91
2016-12-27T04:01:35.083Z,21.91
2016-12-27T04:02:45.334Z,21.91
2016-12-27T04:03:55.280Z,21.91
2016-12-27T04:05:04.983Z,21.91
2016-12-27T04:06:15.255Z,21.91
2016-12-27T04:07:24.922Z,21.91
2016-12-27T04:08:35.161Z,21.91
2016-12-27T04:09:45.115Z,22.19
2016-12-27T04:10:55.375Z,22
2016-12-27T04:12:05.626Z,22
2016-12-27T04:13:15.894Z,22
2016-12-27T04:14:25.637Z,22
2016-12-27T04:15:35.888Z,22.19
2016-12-27T04:16:45.836Z,21.91
2016-12-27T04:17:56.103Z,22
2016-12-27T04:19:05.748Z,22
2016-12-27T04:20:15.083Z,22
2016-12-27T04:21:24.714Z,22
2016-12-27T04:22:34.964Z,22.09
2016-12-27T04:23:44.932Z,22.09
2016-12-27T04:24:54.568Z,22.09
2016-12-27T04:26:04.519Z,22.09
2016-12-27T04:27:14.475Z,21.91
2016-12-27T04:28:24.430Z,21.81
2016-12-27T04:29:34.690Z,22.09
2016-12-27T04:30:45.196Z,21.91
2016-12-27T04:31:55.461Z,21.91
2016-12-27T04:33:05.728Z,22
2016-12-27T04:34:15.680Z,22
2016-12-27T04:35:25.944Z,22
2016-12-27T04:36:36.192Z,21.91
2016-12-27T04:37:46.144Z,21.91
2016-12-27T04:38:56.087Z,21.91
2016-12-27T04:40:06.362Z,21.91
2016-12-27T04:41:16.314Z,21.91
2016-12-27T04:42:26.567Z,21.91
2016-12-27T04:43:36.833Z,21.91
2016-12-27T04:44:46.766Z,21.91
2016-12-27T04:45:57.028Z,21.91
2016-12-27T04:47:06.654Z,21.91
2016-12-27T04:48:16.305Z,22
2016-12-27T04:49:26.238Z,22.09
2016-12-27T04:50:35.870Z,22
2016-12-27T04:51:46.153Z,21.91
2016-12-27T04:52:56.434Z,22
2016-12-27T04:54:06.373Z,21.91
2016-12-27T04:55:15.701Z,21.91
2016-12-27T04:56:25.963Z,22
2016-12-27T04:57:36.216Z,22
2016-12-27T04:58:45.864Z,22
2016-12-27T04:59:56.116Z,21.91
2016-12-27T05:01:06.069Z,21.81
2016-12-27T05:02:15.705Z,22.09
2016-12-27T05:03:25.646Z,21.81
2016-12-27T05:04:35.906Z,21.89
2016-12-27T05:05:45.854Z,22
2016-12-27T05:06:55.803Z,22.09
2016-12-27T05:08:06.085Z,22.09
2016-12-27T05:09:16.382Z,21.91
2016-12-27T05:10:26.644Z,21.71
2016-12-27T05:11:36.615Z,21.81
2016-12-27T05:12:46.570Z,21.81
2016-12-27T05:13:55.912Z,21.71
2016-12-27T05:15:05.862Z,21.71
2016-12-27T05:16:15.818Z,21.61
2016-12-27T05:17:25.450Z,21.61
2016-12-27T05:18:35.085Z,21.71
2016-12-27T05:19:45.037Z,21.71
2016-12-27T05:20:54.983Z,21.81
2016-12-27T05:22:04.929Z,21.61
2016-12-27T05:23:14.580Z,21.71
2016-12-27T05:24:24.227Z,21.71
2016-12-27T05:25:34.195Z,21.71
2016-12-27T05:26:44.138Z,21.52
2016-12-27T05:27:54.137Z,21.71
2016-12-27T05:29:04.407Z,21.71
2016-12-27T05:30:14.058Z,21.52
2016-12-27T05:31:24.009Z,21.71
2016-12-27T05:32:33.971Z,21.71
2016-12-27T05:33:44.240Z,21.81
2016-12-27T05:34:54.393Z,21.52
2016-12-27T05:36:04.658Z,21.81
2016-12-27T05:37:14.317Z,21.71
2016-12-27T05:38:24.621Z,21.71
2016-12-27T05:39:34.578Z,21.81
2016-12-27T05:40:44.526Z,21.81
2016-12-27T05:41:54.784Z,21.71
2016-12-27T05:43:04.422Z,21.71
2016-12-27T05:44:14.073Z,21.61
2016-12-27T05:45:24.345Z,21.71
2016-12-27T05:46:33.996Z,21.52
2016-12-27T05:47:44.251Z,21.52
2016-12-27T05:48:54.206Z,21.71
2016-12-27T05:50:04.172Z,21.71
2016-12-27T05:51:14.117Z,21.52
2016-12-27T05:52:23.464Z,21.52
2016-12-27T05:53:33.727Z,21.52
2016-12-27T05:54:43.986Z,21.52
2016-12-27T05:55:54.399Z,21.42
2016-12-27T05:57:04.040Z,21.42
2016-12-27T05:58:14.008Z,21.52
2016-12-27T05:59:24.281Z,21.42
2016-12-27T06:00:34.539Z,21.42
2016-12-27T06:01:44.188Z,21.42
2016-12-27T06:02:54.151Z,21.61
2016-12-27T06:04:04.409Z,21.52
2016-12-27T06:05:13.767Z,21.52
2016-12-27T06:06:23.709Z,21.81
2016-12-27T06:07:33.347Z,21.71
2016-12-27T06:08:42.989Z,21.71
2016-12-27T06:09:52.643Z,21.42
2016-12-27T06:11:02.903Z,21.81
2016-12-27T06:12:13.153Z,21.42
2016-12-27T06:13:23.434Z,21.52
2016-12-27T06:14:33.723Z,21.52
2016-12-27T06:15:43.668Z,21.81
2016-12-27T06:16:52.997Z,21.52
2016-12-27T06:18:03.253Z,21.81
2016-12-27T06:19:13.202Z,21.71
2016-12-27T06:20:23.915Z,21.61
2016-12-27T06:21:33.864Z,21.71
2016-12-27T06:22:43.800Z,21.71
2016-12-27T06:23:54.076Z,21.71
2016-12-27T06:25:03.097Z,21.71
2016-12-27T06:26:13.043Z,21.81
2016-12-27T06:27:22.675Z,21.71
2016-12-27T06:28:32.931Z,21.52
2016-12-27T06:29:42.886Z,21.61
2016-12-27T06:30:52.842Z,21.61
2016-12-27T06:32:02.785Z,21.52
2016-12-27T06:33:13.041Z,21.81
2016-12-27T06:34:22.991Z,21.52
2016-12-27T06:35:33.242Z,21.71
2016-12-27T06:36:43.486Z,21.61
2016-12-27T06:37:53.440Z,21.71
2016-12-27T06:39:03.413Z,21.61
2016-12-27T06:40:13.681Z,21.81
2016-12-27T06:41:23.960Z,22
2016-12-27T06:42:34.224Z,22.09
2016-12-27T06:43:44.176Z,21.91
2016-12-27T06:44:54.123Z,22
2016-12-27T06:46:04.386Z,21.91
2016-12-27T06:47:14.027Z,21.91
2016-12-27T06:48:24.300Z,21.91
2016-12-27T06:49:34.574Z,22
2016-12-27T06:50:44.537Z,21.81
2016-12-27T06:51:54.790Z,22.09
2016-12-27T06:53:05.055Z,22.09
2016-12-27T06:54:14.699Z,22.09
2016-12-27T06:55:24.630Z,22
2016-12-27T06:56:34.898Z,22
2016-12-27T06:57:44.843Z,22
2016-12-27T06:58:54.165Z,22.09
2016-12-27T07:00:04.453Z,22.09
2016-12-27T07:01:14.405Z,22.29
2016-12-27T07:02:24.658Z,22
2016-12-27T07:03:34.933Z,22.29
2016-12-27T07:04:45.182Z,22.29
2016-12-27T07:05:54.835Z,22.29
2016-12-27T07:07:05.117Z,22.29
2016-12-27T07:08:14.760Z,22.29
2016-12-27T07:09:24.699Z,22.19
2016-12-27T07:10:34.953Z,22.09
2016-12-27T07:11:44.593Z,22.09
2016-12-27T07:12:55.006Z,22.19
2016-12-27T07:14:04.652Z,22.19
2016-12-27T07:15:14.599Z,22.09
2016-12-27T07:16:24.868Z,22
2016-12-27T07:17:35.117Z,22.29
2016-12-27T07:18:44.756Z,22.09
2016-12-27T07:19:54.715Z,22.09
2016-12-27T07:21:04.975Z,22.19
2016-12-27T07:22:14.622Z,22.09
2016-12-27T07:23:24.574Z,22.09
2016-12-27T07:24:34.519Z,21.91
2016-12-27T07:25:44.990Z,22
2016-12-27T07:26:55.255Z,21.91
2016-12-27T07:28:05.521Z,21.81
2016-12-27T07:29:15.155Z,21.91
2016-12-27T07:30:25.431Z,21.91
2016-12-27T07:31:34.464Z,21.91
2016-12-27T07:32:44.426Z,21.91
2016-12-27T07:33:54.092Z,21.91
2016-12-27T07:35:04.365Z,22.09
2016-12-27T07:36:14.007Z,22
2016-12-27T07:37:23.956Z,22
2016-12-27T07:38:33.917Z,22.09
2016-12-27T07:39:44.154Z,22
2016-12-27T07:40:54.108Z,22
2016-12-27T07:42:04.381Z,22.09
2016-12-27T07:43:14.340Z,22
2016-12-27T07:44:24.308Z,22.19
2016-12-27T07:45:34.292Z,22.09
2016-12-27T07:46:44.545Z,22.09
2016-12-27T07:47:54.490Z,22.19
2016-12-27T07:49:04.765Z,22.19
2016-12-27T07:50:14.704Z,22.19
2016-12-27T07:51:24.975Z,22.19
2016-12-27T07:52:34.624Z,22
2016-12-27T07:53:44.906Z,22.19
2016-12-27T07:54:54.884Z,22.09
2016-12-27T07:56:04.833Z,22.09
2016-12-27T07:57:14.804Z,22.09
2016-12-27T07:58:25.075Z,22.19
2016-12-27T07:59:35.351Z,22.09
2016-12-27T08:00:45.290Z,22.09
2016-12-27T08:01:54.941Z,22.09
2016-12-27T08:03:04.902Z,22
2016-12-27T08:04:14.856Z,22.09
2016-12-27T08:05:25.117Z,22
2016-12-27T08:06:35.388Z,22
2016-12-27T08:07:45.651Z,21.91
2016-12-27T08:08:55.915Z,22
2016-12-27T08:10:06.173Z,21.81
2016-12-27T08:11:16.435Z,22
2016-12-27T08:12:26.416Z,21.91
2016-12-27T08:13:36.071Z,22
2016-12-27T08:14:46.330Z,22.19
2016-12-27T08:15:56.291Z,22.19
2016-12-27T08:17:06.569Z,22.19
2016-12-27T08:18:16.533Z,22.09
2016-12-27T08:19:26.814Z,22.09
2016-12-27T08:20:37.069Z,22.19
2016-12-27T08:21:47.017Z,22.19
2016-12-27T08:22:57.312Z,22.19
2016-12-27T08:24:06.965Z,22.29
2016-12-27T08:25:17.222Z,22.19
2016-12-27T08:26:26.862Z,22.19
2016-12-27T08:27:36.816Z,22.09
2016-12-27T08:28:46.799Z,22.09
2016-12-27T08:29:56.749Z,22.09
2016-12-27T08:31:06.695Z,22
2016-12-27T08:32:16.654Z,22.19
2016-12-27T08:33:26.957Z,22.19
2016-12-27T08:34:37.232Z,22.09
2016-12-27T08:35:47.194Z,21.91
2016-12-27T08:36:57.459Z,21.91
2016-12-27T08:38:07.732Z,22
2016-12-27T08:39:17.079Z,22.09
2016-12-27T08:40:27.360Z,22.19
2016-12-27T08:41:37.294Z,22.19
2016-12-27T08:42:46.945Z,22.19
2016-12-27T08:43:57.217Z,22.19
2016-12-27T08:45:06.868Z,22.19
2016-12-27T08:46:17.149Z,21.91
2016-12-27T08:47:26.801Z,22.19
2016-12-27T08:48:36.743Z,22.19
2016-12-27T08:49:46.710Z,22.19
2016-12-27T08:50:56.653Z,22.29
2016-12-27T08:52:06.596Z,22.19
2016-12-27T08:53:16.855Z,22.38
2016-12-27T08:54:26.813Z,22.38
2016-12-27T08:55:36.817Z,22.48
2016-12-27T08:56:46.778Z,22.38
2016-12-27T08:57:57.031Z,22.19
2016-12-27T08:59:06.367Z,22.19
2016-12-27T09:00:16.628Z,22.38
2016-12-27T09:01:26.579Z,22.38
2016-12-27T09:02:36.525Z,22.19
2016-12-27T09:03:46.785Z,22.09
2016-12-27T09:04:56.417Z,22
2016-12-27T09:06:06.388Z,21.91
2016-12-27T09:07:16.660Z,22
2016-12-27T09:08:26.312Z,22.09
2016-12-27T09:09:36.606Z,22
2016-12-27T09:10:46.558Z,21.91
2016-12-27T09:11:56.808Z,22.19
2016-12-27T09:13:06.771Z,22.19
2016-12-27T09:14:17.022Z,22
2016-12-27T09:15:26.666Z,22.09
2016-12-27T09:16:36.936Z,22.38
2016-12-27T09:17:46.584Z,22.38
2016-12-27T09:18:56.535Z,22.29
2016-12-27T09:20:05.570Z,22.19
2016-12-27T09:21:15.842Z,22.19
2016-12-27T09:22:25.793Z,22
2016-12-27T09:23:35.735Z,22.29
2016-12-27T09:24:45.703Z,22.29
2016-12-27T09:25:55.968Z,22.38
2016-12-27T09:27:05.857Z,22.19
2016-12-27T09:28:15.502Z,22.19
2016-12-27T09:29:25.761Z,22
2016-12-27T09:30:35.721Z,22.19
2016-12-27T09:31:45.700Z,22.09
2016-12-27T09:32:55.656Z,22.09
2016-12-27T09:34:05.300Z,22.09
2016-12-27T09:35:15.249Z,22.09
2016-12-27T09:36:25.221Z,22
2016-12-27T09:37:35.175Z,22
2016-12-27T09:38:44.832Z,21.91
2016-12-27T09:39:54.488Z,21.91
2016-12-27T09:41:04.445Z,22
2016-12-27T09:42:14.711Z,22
2016-12-27T09:43:24.358Z,22.09
2016-12-27T09:44:34.000Z,22.19
2016-12-27T09:45:44.256Z,22.01
2016-12-27T09:46:54.227Z,21.92
2016-12-27T09:48:04.496Z,21.81
2016-12-27T09:49:14.764Z,22.09
2016-12-27T09:50:25.043Z,21.91
2016-12-27T09:51:35.325Z,21.91
2016-12-27T09:52:44.973Z,21.61
2016-12-27T09:53:55.242Z,21.71
2016-12-27T09:55:05.206Z,21.91
2016-12-27T09:56:15.472Z,21.71
2016-12-27T09:57:25.120Z,21.71
2016-12-27T09:58:35.092Z,21.71
2016-12-27T09:59:45.050Z,21.61
2016-12-27T10:00:55.027Z,21.71
2016-12-27T10:02:05.289Z,21.52
2016-12-27T10:03:15.255Z,21.61
2016-12-27T10:04:25.520Z,21.61
2016-12-27T10:05:35.472Z,21.71
2016-12-27T10:06:45.430Z,21.61
2016-12-27T10:07:55.072Z,21.42
2016-12-27T10:09:04.427Z,21.23
2016-12-27T10:10:14.374Z,21.33
2016-12-27T10:11:23.715Z,20.65
2016-12-27T10:12:33.677Z,21.23
2016-12-27T10:13:43.952Z,21.14
2016-12-27T10:14:54.226Z,21.14
2016-12-27T10:16:04.195Z,21.14
2016-12-27T10:17:13.853Z,21.33
2016-12-27T10:18:24.140Z,21.14
2016-12-27T10:19:34.407Z,21.04
2016-12-27T10:20:44.058Z,21.23
2016-12-27T10:21:53.696Z,21.14
2016-12-27T10:23:03.949Z,21.04
2016-12-27T10:24:13.600Z,21.04
2016-12-27T10:25:23.277Z,21.23
2016-12-27T10:26:32.930Z,20.56
2016-12-27T10:27:42.888Z,20.65
2016-12-27T10:28:53.169Z,20.94
2016-12-27T10:30:03.135Z,20.94
2016-12-27T10:31:13.097Z,20.56
2016-12-27T10:32:23.056Z,20.27
2016-12-27T10:33:33.326Z,20.28
2016-12-27T10:34:43.601Z,20.38
2016-12-27T10:35:53.247Z,20.18
2016-12-27T10:37:03.202Z,20.18
2016-12-27T10:38:13.463Z,20.27
2016-12-27T10:39:23.123Z,20.09
2016-12-27T10:40:33.137Z,20.27
2016-12-27T10:41:43.092Z,20.28
2016-12-27T10:42:53.367Z,20.09
2016-12-27T10:44:03.636Z,19.7
2016-12-27T10:45:13.917Z,19.8
2016-12-27T10:46:24.176Z,19.7
2016-12-27T10:47:34.150Z,19.8
2016-12-27T10:48:44.410Z,19.7
2016-12-27T10:49:54.678Z,19.79
2016-12-27T10:51:04.631Z,19.42
2016-12-27T10:52:14.285Z,19.42
2016-12-27T10:53:24.234Z,19.7
2016-12-27T10:54:34.182Z,19.7
2016-12-27T10:55:43.525Z,19.61
2016-12-27T10:56:53.532Z,19.61
2016-12-27T10:58:02.882Z,19.7
2016-12-27T10:59:13.160Z,19.61
2016-12-27T11:00:23.475Z,19.42
2016-12-27T11:01:33.772Z,19.61
2016-12-27T11:02:43.739Z,19.51
2016-12-27T11:03:53.394Z,19.32
2016-12-27T11:05:03.662Z,19.7
2016-12-27T11:06:13.924Z,19.6
2016-12-27T11:07:24.193Z,19.89
2016-12-27T11:08:34.150Z,19.98
2016-12-27T11:09:43.818Z,19.51
2016-12-27T11:10:53.773Z,19.6
2016-12-27T11:12:03.438Z,19.7
2016-12-27T11:13:13.384Z,19.6
2016-12-27T11:14:23.042Z,19.89
2016-12-27T11:15:33.308Z,19.7
2016-12-27T11:16:43.582Z,19.6
2016-12-27T11:17:53.854Z,19.6
2016-12-27T11:19:03.819Z,19.79
2016-12-27T11:20:13.770Z,19.6
2016-12-27T11:21:23.754Z,19.79
2016-12-27T11:22:34.032Z,19.6
2016-12-27T11:23:44.295Z,19.7
2016-12-27T11:24:53.955Z,19.7
2016-12-27T11:26:03.939Z,19.79
2016-12-27T11:27:14.614Z,19.79
2016-12-27T11:28:24.882Z,19.6
2016-12-27T11:29:34.534Z,19.4
2016-12-27T11:30:44.489Z,19.4
2016-12-27T11:31:54.444Z,19.6
2016-12-27T11:33:04.391Z,19.4
2016-12-27T11:34:14.364Z,19.31
2016-12-27T11:35:24.673Z,19.31
2016-12-27T11:36:34.945Z,19.31
2016-12-27T11:37:45.207Z,19.5
2016-12-27T11:38:54.855Z,19.79
2016-12-27T11:40:04.820Z,19.4
2016-12-27T11:41:14.781Z,19.4
2016-12-27T11:42:24.736Z,19.12
2016-12-27T11:43:35.005Z,19.7
2016-12-27T11:44:44.650Z,19.5
2016-12-27T11:45:54.612Z,19.6
2016-12-27T11:47:04.864Z,19.79
2016-12-27T11:48:14.820Z,19.5
2016-12-27T11:49:24.771Z,19.4
2016-12-27T11:50:34.428Z,19.4
2016-12-27T11:51:44.090Z,19.5
2016-12-27T11:52:53.744Z,19.79
2016-12-27T11:54:03.712Z,19.7
2016-12-27T11:55:13.977Z,19.7
2016-12-27T11:56:23.929Z,19.89
2016-12-27T11:57:33.884Z,19.89
2016-12-27T11:58:44.166Z,19.7
2016-12-27T11:59:54.140Z,19.6
2016-12-27T12:01:03.797Z,19.7
2016-12-27T12:02:14.057Z,19.6
2016-12-27T12:03:24.015Z,19.79
2016-12-27T12:04:34.280Z,19.79
2016-12-27T12:05:44.562Z,19.5
2016-12-27T12:06:54.834Z,19.79
2016-12-27T12:08:05.111Z,19.89
2016-12-27T12:09:15.067Z,19.6
2016-12-27T12:10:24.709Z,19.79
2016-12-27T12:11:34.988Z,19.79
2016-12-27T12:12:45.266Z,19.79
2016-12-27T12:13:55.035Z,19.7
2016-12-27T12:15:04.402Z,19.89
2016-12-27T12:16:14.664Z,19.7
2016-12-27T12:17:24.314Z,19.7
2016-12-27T12:18:34.277Z,19.7
2016-12-27T12:19:43.912Z,19.7
2016-12-27T12:20:53.861Z,19.7
2016-12-27T12:22:03.519Z,19.6
2016-12-27T12:23:13.503Z,19.7
2016-12-27T12:24:23.452Z,19.6
2016-12-27T12:25:33.830Z,19.79
2016-12-27T12:26:44.101Z,19.79
2016-12-27T12:27:54.064Z,19.79
2016-12-27T12:29:03.702Z,19.79
2016-12-27T12:30:13.977Z,19.89
2016-12-27T12:31:23.951Z,19.6
2016-12-27T12:32:34.220Z,19.6
2016-12-27T12:33:43.875Z,19.79
2016-12-27T12:34:53.826Z,19.7
2016-12-27T12:36:03.779Z,19.98
2016-12-27T12:37:14.047Z,19.5
2016-12-27T12:38:23.996Z,19.6
2016-12-27T12:39:34.245Z,19.4
2016-12-27T12:40:44.499Z,19.6
2016-12-27T12:41:54.777Z,19.7
2016-12-27T12:43:04.429Z,19.89
2016-12-27T12:44:14.707Z,19.6
2016-12-27T12:45:24.979Z,19.79
2016-12-27T12:46:34.944Z,19.7
2016-12-27T12:47:45.212Z,19.6
2016-12-27T12:48:55.482Z,19.89
2016-12-27T12:50:05.433Z,19.7
2016-12-27T12:51:15.097Z,19.6
2016-12-27T12:52:25.394Z,19.7
2016-12-27T12:53:35.667Z,19.7
2016-12-27T12:54:45.021Z,19.7
2016-12-27T12:55:55.295Z,19.6
2016-12-27T12:57:05.251Z,19.7
2016-12-27T12:58:15.519Z,19.6
2016-12-27T12:59:25.177Z,19.6
2016-12-27T13:00:35.433Z,19.7
2016-12-27T13:01:45.383Z,19.79
2016-12-27T13:02:55.338Z,19.7
2016-12-27T13:04:05.292Z,19.5
2016-12-27T13:05:14.927Z,19.6
2016-12-27T13:06:24.892Z,19.6
2016-12-27T13:07:34.835Z,19.89
2016-12-27T13:08:44.787Z,19.79
2016-12-27T13:09:54.750Z,19.79
2016-12-27T13:11:05.017Z,19.89
2016-12-27T13:12:14.662Z,19.5
2016-12-27T13:13:24.315Z,19.89
2016-12-27T13:14:34.591Z,19.7
2016-12-27T13:15:44.246Z,19.6
2016-12-27T13:16:54.517Z,19.7
2016-12-27T13:18:04.789Z,19.79
2016-12-27T13:19:14.754Z,19.89
2016-12-27T13:20:25.014Z,19.98
2016-12-27T13:21:35.295Z,19.5
2016-12-27T13:22:44.969Z,19.79
2016-12-27T13:23:55.234Z,19.79
2016-12-27T13:25:05.177Z,19.7
2016-12-27T13:26:15.125Z,19.6
2016-12-27T13:27:25.068Z,19.6
2016-12-27T13:28:34.716Z,19.6
2016-12-27T13:29:44.981Z,19.7
2016-12-27T13:30:54.934Z,19.5
2016-12-27T13:32:04.883Z,19.4
2016-12-27T13:33:15.139Z,19.5
2016-12-27T13:34:25.443Z,19.6
2016-12-27T13:35:35.708Z,19.7
2016-12-27T13:36:45.993Z,19.31
2016-12-27T13:37:56.271Z,19.4
2016-12-27T13:39:06.537Z,19.31
2016-12-27T13:40:16.502Z,19.4
2016-12-27T13:41:26.755Z,19.5
2016-12-27T13:42:36.438Z,19.02
2016-12-27T13:43:46.410Z,19.02
2016-12-27T13:44:56.375Z,19.21
2016-12-27T13:46:06.343Z,18.93
2016-12-27T13:47:15.998Z,18.73
2016-12-27T13:48:25.652Z,18.54
2016-12-27T13:49:35.947Z,18.54
2016-12-27T13:50:46.206Z,18.54
2016-12-27T13:51:56.160Z,18.44
2016-12-27T13:53:06.440Z,18.35
2016-12-27T13:54:16.095Z,18.44
2016-12-27T13:55:26.367Z,18.35
2016-12-27T13:56:36.642Z,18.54
2016-12-27T13:57:46.594Z,18.63
2016-12-27T13:58:56.853Z,18.54
2016-12-27T14:00:06.834Z,18.44
2016-12-27T14:01:16.479Z,18.26
2016-12-27T14:02:26.448Z,17.96
2016-12-27T14:03:36.723Z,17.87
2016-12-27T14:04:46.998Z,18.06
2016-12-27T14:05:56.944Z,18.44
2016-12-27T14:07:06.902Z,18.26
2016-12-27T14:08:17.158Z,18.06
2016-12-27T14:09:27.433Z,17.96
2016-12-27T14:10:37.725Z,17.96
2016-12-27T14:11:47.693Z,18.06
2016-12-27T14:12:57.050Z,17.96
2016-12-27T14:14:06.998Z,18.16
2016-12-27T14:15:17.277Z,17.87
2016-12-27T14:16:27.227Z,17.49
2016-12-27T14:17:37.187Z,17.77
2016-12-27T14:18:47.143Z,17.87
2016-12-27T14:19:57.117Z,17.49
2016-12-27T14:21:06.793Z,17.58
2016-12-27T14:22:17.066Z,17.58
2016-12-27T14:23:26.711Z,17.68
2016-12-27T14:24:36.999Z,17.58
2016-12-27T14:25:46.959Z,17.49
2016-12-27T14:26:57.236Z,17.68
2016-12-27T14:28:07.530Z,17.77
2016-12-27T14:29:17.185Z,17.77
2016-12-27T14:30:27.608Z,17.58
2016-12-27T14:31:37.886Z,17.77
2016-12-27T14:32:48.161Z,17.68
2016-12-27T14:33:58.187Z,17.58
2016-12-27T14:35:08.459Z,17.49
2016-12-27T14:36:18.401Z,17.87
2016-12-27T14:37:28.354Z,17.68
2016-12-27T14:38:38.652Z,17.77
2016-12-27T14:39:48.629Z,17.77
2016-12-27T14:40:58.895Z,17.58
2016-12-27T14:42:09.176Z,17.77
2016-12-27T14:43:18.822Z,17.29
2016-12-27T14:44:28.791Z,17.19
2016-12-27T14:45:39.065Z,17.77
2016-12-27T14:46:49.327Z,17.68
2016-12-27T14:47:58.666Z,17.39
2016-12-27T14:49:08.954Z,17.77
2016-12-27T14:50:18.608Z,17.68
2016-12-27T14:51:28.889Z,17.68
2016-12-27T14:52:38.834Z,17.58
2016-12-27T14:53:48.796Z,17.58
2016-12-27T14:54:58.768Z,17.77
2016-12-27T14:56:08.708Z,17.68
2016-12-27T14:57:18.689Z,17.58
2016-12-27T14:58:28.666Z,17.39
2016-12-27T14:59:38.925Z,17.58
2016-12-27T15:00:48.903Z,17.58
2016-12-27T15:01:59.175Z,17.58
2016-12-27T15:03:08.868Z,17.49
2016-12-27T15:04:18.840Z,17.58
2016-12-27T15:05:28.811Z,17.39
2016-12-27T15:06:38.146Z,17.58
2016-12-27T15:07:48.427Z,17.58
2016-12-27T15:08:58.389Z,17.39
2016-12-27T15:10:08.684Z,17.49
2016-12-27T15:11:18.982Z,17.49
2016-12-27T15:12:28.636Z,17.49
2016-12-27T15:13:38.911Z,17.58